createdAt,value
2017-10-18T00:00:35.661Z,1012.78
2017-10-18T00:01:45.643Z,1012.74
2017-10-18T00:02:55.608Z,1012.73
2017-10-18T00:04:05.907Z,1012.7
2017-10-18T00:05:16.215Z,1012.68
2017-10-18T00:06:26.511Z,1012.68
2017-10-18T00:07:36.477Z,1012.68
2017-10-18T00:08:46.140Z,1012.69
2017-10-18T00:09:56.446Z,1012.66
2017-10-18T00:11:06.421Z,1012.66
2017-10-18T00:12:16.731Z,1012.69
2017-10-18T00:13:27.053Z,1012.72
2017-10-18T00:14:37.356Z,1012.65
2017-10-18T00:15:47.999Z,1012.75
2017-10-18T00:16:57.968Z,1012.69
2017-10-18T00:18:07.937Z,1012.69
2017-10-18T00:19:17.913Z,1012.68
2017-10-18T00:20:28.213Z,1012.68
2017-10-18T00:21:37.852Z,1012.65
2017-10-18T00:22:48.145Z,1012.71
2017-10-18T00:23:58.121Z,1012.71
2017-10-18T00:25:08.425Z,1012.7
2017-10-18T00:26:18.718Z,1012.69
2017-10-18T00:27:29.009Z,1012.69
2017-10-18T00:28:38.976Z,1012.7
2017-10-18T00:29:48.622Z,1012.66
2017-10-18T00:30:58.262Z,1012.66
2017-10-18T00:32:08.580Z,1012.65
2017-10-18T00:33:18.881Z,1012.63
2017-10-18T00:34:29.185Z,1012.61
2017-10-18T00:35:39.481Z,1012.63
2017-10-18T00:36:49.450Z,1012.63
2017-10-18T00:37:59.741Z,1012.59
2017-10-18T00:39:10.053Z,1012.58
2017-10-18T00:40:20.359Z,1012.54
2017-10-18T00:41:30.651Z,1012.52
2017-10-18T00:42:40.623Z,1012.5
2017-10-18T00:43:50.918Z,1012.47
2017-10-18T00:45:01.245Z,1012.42
2017-10-18T00:46:11.534Z,1012.45
2017-10-18T00:47:21.847Z,1012.41
2017-10-18T00:48:32.142Z,1012.37
2017-10-18T00:49:42.115Z,1012.34
2017-10-18T00:50:52.404Z,1012.33
2017-10-18T00:52:02.740Z,1012.34
2017-10-18T00:53:12.710Z,1012.31
2017-10-18T00:54:23.027Z,1012.3
2017-10-18T00:55:33.316Z,1012.34
2017-10-18T00:56:43.608Z,1012.33
2017-10-18T00:57:53.584Z,1012.3
2017-10-18T00:59:03.903Z,1012.3
2017-10-18T01:00:14.208Z,1012.27
2017-10-18T01:01:24.179Z,1012.23
2017-10-18T01:02:34.159Z,1012.26
2017-10-18T01:03:44.472Z,1012.22
2017-10-18T01:04:54.436Z,1012.22
2017-10-18T01:06:04.729Z,1012.2
2017-10-18T01:07:15.024Z,1012.19
2017-10-18T01:08:25.325Z,1012.18
2017-10-18T01:09:35.616Z,1012.13
2017-10-18T01:10:45.911Z,1012.18
2017-10-18T01:11:56.215Z,1012.17
2017-10-18T01:13:06.506Z,1012.19
2017-10-18T01:14:16.485Z,1012.16
2017-10-18T01:15:26.797Z,1012.16
2017-10-18T01:16:37.095Z,1012.16
2017-10-18T01:17:47.406Z,1012.19
2017-10-18T01:18:57.374Z,1012.15
2017-10-18T01:20:07.676Z,1012.15
2017-10-18T01:21:17.969Z,1012.09
2017-10-18T01:22:28.318Z,1012.08
2017-10-18T01:23:37.986Z,1012.1
2017-10-18T01:24:48.282Z,1012.03
2017-10-18T01:25:58.577Z,1012.01
2017-10-18T01:27:08.874Z,1012.02
2017-10-18T01:28:18.862Z,1011.99
2017-10-18T01:29:28.827Z,1011.97
2017-10-18T01:30:39.119Z,1012
2017-10-18T01:31:49.082Z,1012.01
2017-10-18T01:32:59.376Z,1011.94
2017-10-18T01:34:09.355Z,1011.93
2017-10-18T01:35:19.652Z,1011.94
2017-10-18T01:36:29.620Z,1011.9
2017-10-18T01:37:39.483Z,1011.89
2017-10-18T01:38:49.788Z,1011.86
2017-10-18T01:40:00.083Z,1011.82
2017-10-18T01:41:10.403Z,1011.82
2017-10-18T01:42:20.046Z,1011.81
2017-10-18T01:43:30.348Z,1011.83
2017-10-18T01:44:40.643Z,1011.85
2017-10-18T01:45:50.611Z,1011.82
2017-10-18T01:47:00.607Z,1011.86
2017-10-18T01:48:10.919Z,1011.85
2017-10-18T01:49:21.213Z,1011.83
2017-10-18T01:50:30.844Z,1011.82
2017-10-18T01:51:40.480Z,1011.8
2017-10-18T01:52:50.773Z,1011.83
2017-10-18T01:54:00.736Z,1011.77
2017-10-18T01:55:10.715Z,1011.8
2017-10-18T01:56:20.352Z,1011.77
2017-10-18T01:57:30.643Z,1011.83
2017-10-18T01:58:40.616Z,1011.81
2017-10-18T01:59:50.903Z,1011.78
2017-10-18T02:01:00.886Z,1011.75
2017-10-18T02:02:11.181Z,1011.71
2017-10-18T02:03:21.477Z,1011.69
2017-10-18T02:04:31.443Z,1011.65
2017-10-18T02:05:41.765Z,1011.67
2017-10-18T02:06:52.063Z,1011.73
2017-10-18T02:08:02.373Z,1011.7
2017-10-18T02:09:12.665Z,1011.71
2017-10-18T02:10:22.313Z,1011.7
2017-10-18T02:11:32.600Z,1011.66
2017-10-18T02:12:42.902Z,1011.65
2017-10-18T02:13:53.182Z,1011.67
2017-10-18T02:15:03.484Z,1011.63
2017-10-18T02:16:13.805Z,1011.64
2017-10-18T02:17:24.092Z,1011.63
2017-10-18T02:18:34.386Z,1011.61
2017-10-18T02:19:44.687Z,1011.58
2017-10-18T02:20:54.965Z,1011.61
2017-10-18T02:22:05.261Z,1011.57
2017-10-18T02:23:15.596Z,1011.58
2017-10-18T02:24:25.927Z,1011.58
2017-10-18T02:25:36.220Z,1011.59
2017-10-18T02:26:46.510Z,1011.55
2017-10-18T02:27:56.814Z,1011.56
2017-10-18T02:29:07.108Z,1011.55
2017-10-18T02:30:17.417Z,1011.53
2017-10-18T02:31:27.718Z,1011.54
2017-10-18T02:32:38.014Z,1011.5
2017-10-18T02:33:48.316Z,1011.47
2017-10-18T02:34:58.615Z,1011.48
2017-10-18T02:36:08.905Z,1011.48
2017-10-18T02:37:19.204Z,1011.5
2017-10-18T02:38:29.504Z,1011.49
2017-10-18T02:39:39.475Z,1011.49
2017-10-18T02:40:49.458Z,1011.48
2017-10-18T02:41:59.754Z,1011.5
2017-10-18T02:43:10.051Z,1011.48
2017-10-18T02:44:20.350Z,1011.46
2017-10-18T02:45:30.641Z,1011.52
2017-10-18T02:46:40.632Z,1011.57
2017-10-18T02:47:50.922Z,1011.59
2017-10-18T02:49:00.906Z,1011.56
2017-10-18T02:50:10.577Z,1011.52
2017-10-18T02:51:20.543Z,1011.48
2017-10-18T02:52:30.849Z,1011.49
2017-10-18T02:53:40.828Z,1011.47
2017-10-18T02:54:51.141Z,1011.46
2017-10-18T02:56:01.126Z,1011.44
2017-10-18T02:57:11.432Z,1011.43
2017-10-18T02:58:21.718Z,1011.45
2017-10-18T02:59:31.691Z,1011.43
2017-10-18T03:00:41.976Z,1011.41
2017-10-18T03:01:52.276Z,1011.44
2017-10-18T03:03:02.565Z,1011.41
2017-10-18T03:04:12.534Z,1011.42
2017-10-18T03:05:22.507Z,1011.42
2017-10-18T03:06:32.801Z,1011.48
2017-10-18T03:07:43.096Z,1011.46
2017-10-18T03:08:53.400Z,1011.47
2017-10-18T03:10:03.050Z,1011.53
2017-10-18T03:11:13.021Z,1011.54
2017-10-18T03:12:23.318Z,1011.5
2017-10-18T03:13:33.645Z,1011.53
2017-10-18T03:14:43.940Z,1011.52
2017-10-18T03:15:53.908Z,1011.52
2017-10-18T03:17:03.871Z,1011.49
2017-10-18T03:18:14.172Z,1011.51
2017-10-18T03:19:24.464Z,1011.46
2017-10-18T03:20:34.767Z,1011.47
2017-10-18T03:21:44.729Z,1011.43
2017-10-18T03:22:55.013Z,1011.47
2017-10-18T03:24:04.969Z,1011.51
2017-10-18T03:25:14.943Z,1011.53
2017-10-18T03:26:25.259Z,1011.6
2017-10-18T03:27:35.549Z,1011.62
2017-10-18T03:28:45.842Z,1011.62
2017-10-18T03:29:56.128Z,1011.63
2017-10-18T03:31:06.440Z,1011.63
2017-10-18T03:32:16.775Z,1011.63
2017-10-18T03:33:27.098Z,1011.61
2017-10-18T03:34:37.091Z,1011.57
2017-10-18T03:35:47.412Z,1011.56
2017-10-18T03:36:57.702Z,1011.59
2017-10-18T03:38:07.998Z,1011.57
2017-10-18T03:39:17.969Z,1011.59
2017-10-18T03:40:28.278Z,1011.58
2017-10-18T03:41:38.247Z,1011.54
2017-10-18T03:42:48.210Z,1011.53
2017-10-18T03:43:58.503Z,1011.54
2017-10-18T03:45:08.805Z,1011.56
2017-10-18T03:46:18.770Z,1011.61
2017-10-18T03:47:28.743Z,1011.56
2017-10-18T03:48:38.742Z,1011.59
2017-10-18T03:49:48.713Z,1011.56
2017-10-18T03:50:59.019Z,1011.52
2017-10-18T03:52:09.311Z,1011.54
2017-10-18T03:53:19.598Z,1011.5
2017-10-18T03:54:29.890Z,1011.54
2017-10-18T03:55:40.178Z,1011.53
2017-10-18T03:56:50.461Z,1011.52
2017-10-18T03:58:00.756Z,1011.52
2017-10-18T03:59:10.731Z,1011.51
2017-10-18T04:00:20.694Z,1011.5
2017-10-18T04:01:30.684Z,1011.52
2017-10-18T04:02:40.672Z,1011.53
2017-10-18T04:03:50.962Z,1011.51
2017-10-18T04:05:00.937Z,1011.48
2017-10-18T04:06:11.248Z,1011.5
2017-10-18T04:07:21.554Z,1011.47
2017-10-18T04:08:31.845Z,1011.49
2017-10-18T04:09:41.806Z,1011.48
2017-10-18T04:10:52.095Z,1011.48
2017-10-18T04:12:02.400Z,1011.47
2017-10-18T04:13:12.693Z,1011.48
2017-10-18T04:14:22.669Z,1011.49
2017-10-18T04:15:32.964Z,1011.47
2017-10-18T04:16:42.926Z,1011.44
2017-10-18T04:17:53.216Z,1011.48
2017-10-18T04:19:03.527Z,1011.45
2017-10-18T04:20:13.833Z,1011.42
2017-10-18T04:21:23.804Z,1011.4
2017-10-18T04:22:34.106Z,1011.41
2017-10-18T04:23:44.069Z,1011.39
2017-10-18T04:24:54.367Z,1011.39
2017-10-18T04:26:04.668Z,1011.38
2017-10-18T04:27:14.737Z,1011.4
2017-10-18T04:28:25.032Z,1011.39
2017-10-18T04:29:35.320Z,1011.43
2017-10-18T04:30:45.284Z,1011.41
2017-10-18T04:31:55.237Z,1011.37
2017-10-18T04:33:05.207Z,1011.41
2017-10-18T04:34:15.499Z,1011.39
2017-10-18T04:35:25.145Z,1011.41
2017-10-18T04:36:34.792Z,1011.41
2017-10-18T04:37:45.113Z,1011.43
2017-10-18T04:38:55.413Z,1011.39
2017-10-18T04:40:05.413Z,1011.42
2017-10-18T04:41:15.382Z,1011.38
2017-10-18T04:42:25.684Z,1011.37
2017-10-18T04:43:35.975Z,1011.26
2017-10-18T04:44:46.293Z,1011.26
2017-10-18T04:45:56.281Z,1011.2
2017-10-18T04:47:06.580Z,1011.2
2017-10-18T04:48:16.231Z,1011.22
2017-10-18T04:49:25.875Z,1011.18
2017-10-18T04:50:36.157Z,1011.21
2017-10-18T04:51:46.487Z,1011.19
2017-10-18T04:52:56.788Z,1011.18
2017-10-18T04:54:06.748Z,1011.19
2017-10-18T04:55:17.047Z,1011.16
2017-10-18T04:56:27.352Z,1011.16
2017-10-18T04:57:37.689Z,1011.13
2017-10-18T04:58:47.999Z,1011.15
2017-10-18T04:59:58.304Z,1011.16
2017-10-18T05:01:08.596Z,1011.14
2017-10-18T05:02:18.890Z,1011.15
2017-10-18T05:03:29.191Z,1011.12
2017-10-18T05:04:38.846Z,1011.16
2017-10-18T05:05:49.157Z,1011.2
2017-10-18T05:06:59.121Z,1011.18
2017-10-18T05:08:09.427Z,1011.2
2017-10-18T05:09:19.744Z,1011.19
2017-10-18T05:10:29.757Z,1011.19
2017-10-18T05:11:40.051Z,1011.16
2017-10-18T05:12:50.350Z,1011.17
2017-10-18T05:14:00.636Z,1011.22
2017-10-18T05:15:10.610Z,1011.2
2017-10-18T05:16:20.586Z,1011.2
2017-10-18T05:17:30.875Z,1011.22
2017-10-18T05:18:41.162Z,1011.2
2017-10-18T05:19:50.793Z,1011.18
2017-10-18T05:21:00.765Z,1011.15
2017-10-18T05:22:11.068Z,1011.17
2017-10-18T05:23:21.374Z,1011.15
2017-10-18T05:24:31.666Z,1011.16
2017-10-18T05:25:41.988Z,1011.14
2017-10-18T05:26:51.958Z,1011.16
2017-10-18T05:28:01.968Z,1011.2
2017-10-18T05:29:12.296Z,1011.17
2017-10-18T05:30:22.599Z,1011.22
2017-10-18T05:31:32.937Z,1011.19
2017-10-18T05:32:42.927Z,1011.2
2017-10-18T05:33:52.909Z,1011.2
2017-10-18T05:35:03.216Z,1011.16
2017-10-18T05:36:13.531Z,1011.19
2017-10-18T05:37:23.837Z,1011.18
2017-10-18T05:38:33.805Z,1011.19
2017-10-18T05:39:43.801Z,1011.24
2017-10-18T05:40:53.494Z,1011.25
2017-10-18T05:42:04.247Z,1011.27
2017-10-18T05:43:14.431Z,1011.28
2017-10-18T05:44:28.689Z,1011.31
2017-10-18T05:45:39.059Z,1011.29
2017-10-18T05:46:49.189Z,1011.3
2017-10-18T05:47:59.496Z,1011.27
2017-10-18T05:49:09.839Z,1011.24
2017-10-18T05:50:19.815Z,1011.25
2017-10-18T05:51:29.453Z,1011.23
2017-10-18T05:52:39.755Z,1011.22
2017-10-18T05:53:50.063Z,1011.26
2017-10-18T05:54:59.699Z,1011.27
2017-10-18T05:56:10.005Z,1011.27
2017-10-18T05:57:19.639Z,1011.26
2017-10-18T05:58:29.950Z,1011.28
2017-10-18T05:59:39.915Z,1011.29
2017-10-18T06:00:50.217Z,1011.28
2017-10-18T06:02:00.613Z,1011.31
2017-10-18T06:03:10.586Z,1011.25
2017-10-18T06:04:20.240Z,1011.27
2017-10-18T06:05:30.542Z,1011.27
2017-10-18T06:06:40.512Z,1011.3
2017-10-18T06:07:50.813Z,1011.34
2017-10-18T06:09:01.118Z,1011.33
2017-10-18T06:10:11.405Z,1011.36
2017-10-18T06:11:21.382Z,1011.36
2017-10-18T06:12:31.030Z,1011.38
2017-10-18T06:13:41.346Z,1011.35
2017-10-18T06:14:51.319Z,1011.38
2017-10-18T06:16:01.293Z,1011.35
2017-10-18T06:17:11.596Z,1011.34
2017-10-18T06:18:21.892Z,1011.32
2017-10-18T06:19:31.874Z,1011.37
2017-10-18T06:20:42.176Z,1011.42
2017-10-18T06:21:52.493Z,1011.49
2017-10-18T06:23:02.788Z,1011.5
2017-10-18T06:24:12.784Z,1011.51
2017-10-18T06:25:23.077Z,1011.52
2017-10-18T06:26:33.375Z,1011.51
2017-10-18T06:27:43.682Z,1011.52
2017-10-18T06:28:53.994Z,1011.51
2017-10-18T06:30:04.297Z,1011.49
2017-10-18T06:31:14.601Z,1011.51
2017-10-18T06:32:24.582Z,1011.53
2017-10-18T06:33:34.568Z,1011.52
2017-10-18T06:34:44.858Z,1011.52
2017-10-18T06:35:55.189Z,1011.55
2017-10-18T06:37:05.172Z,1011.53
2017-10-18T06:38:15.480Z,1011.51
2017-10-18T06:39:25.462Z,1011.5
2017-10-18T06:40:35.446Z,1011.45
2017-10-18T06:41:45.429Z,1011.5
2017-10-18T06:42:55.405Z,1011.47
2017-10-18T06:44:05.373Z,1011.46
2017-10-18T06:45:15.364Z,1011.47
2017-10-18T06:46:25.650Z,1011.49
2017-10-18T06:47:35.996Z,1011.49
2017-10-18T06:48:45.976Z,1011.54
2017-10-18T06:49:56.283Z,1011.56
2017-10-18T06:51:06.612Z,1011.47
2017-10-18T06:52:16.577Z,1011.44
2017-10-18T06:53:26.874Z,1011.45
2017-10-18T06:54:37.196Z,1011.47
2017-10-18T06:55:47.188Z,1011.43
2017-10-18T06:56:57.483Z,1011.46
2017-10-18T06:58:07.458Z,1011.51
2017-10-18T06:59:17.771Z,1011.51
2017-10-18T07:00:28.105Z,1011.53
2017-10-18T07:01:38.069Z,1011.57
2017-10-18T07:02:48.383Z,1011.56
2017-10-18T07:03:58.700Z,1011.55
2017-10-18T07:05:09.021Z,1011.52
2017-10-18T07:06:19.314Z,1011.57
2017-10-18T07:07:29.654Z,1011.56
2017-10-18T07:08:39.640Z,1011.56
2017-10-18T07:09:49.644Z,1011.58
2017-10-18T07:10:59.955Z,1011.58
2017-10-18T07:12:10.290Z,1011.54
2017-10-18T07:13:20.641Z,1011.57
2017-10-18T07:14:31.049Z,1011.57
2017-10-18T07:15:41.376Z,1011.57
2017-10-18T07:16:51.357Z,1011.57
2017-10-18T07:18:01.350Z,1011.55
2017-10-18T07:19:11.658Z,1011.52
2017-10-18T07:20:21.961Z,1011.51
2017-10-18T07:21:32.274Z,1011.51
2017-10-18T07:22:42.580Z,1011.5
2017-10-18T07:23:52.894Z,1011.47
2017-10-18T07:25:02.883Z,1011.47
2017-10-18T07:26:12.880Z,1011.49
2017-10-18T07:27:23.183Z,1011.47
2017-10-18T07:28:33.489Z,1011.49
2017-10-18T07:29:43.799Z,1011.53
2017-10-18T07:30:54.100Z,1011.57
2017-10-18T07:32:04.412Z,1011.59
2017-10-18T07:33:14.727Z,1011.53
2017-10-18T07:34:25.034Z,1011.51
2017-10-18T07:35:35.328Z,1011.5
2017-10-18T07:36:45.654Z,1011.52
2017-10-18T07:37:55.635Z,1011.49
2017-10-18T07:39:05.944Z,1011.51
2017-10-18T07:40:16.228Z,1011.52
2017-10-18T07:41:26.195Z,1011.51
2017-10-18T07:42:36.568Z,1011.53
2017-10-18T07:43:46.551Z,1011.51
2017-10-18T07:44:56.938Z,1011.5
2017-10-18T07:46:07.483Z,1011.48
2017-10-18T07:47:17.901Z,1011.51
2017-10-18T07:48:27.886Z,1011.48
2017-10-18T07:49:37.559Z,1011.51
2017-10-18T07:50:47.525Z,1011.49
2017-10-18T07:51:57.502Z,1011.49
2017-10-18T07:53:07.496Z,1011.48
2017-10-18T07:54:17.826Z,1011.49
2017-10-18T07:55:28.149Z,1011.52
2017-10-18T07:56:38.464Z,1011.52
2017-10-18T07:57:48.790Z,1011.52
2017-10-18T07:58:58.788Z,1011.51
2017-10-18T08:00:09.141Z,1011.51
2017-10-18T08:01:19.461Z,1011.46
2017-10-18T08:02:29.780Z,1011.49
2017-10-18T08:03:40.107Z,1011.45
2017-10-18T08:04:50.420Z,1011.45
2017-10-18T08:06:00.733Z,1011.45
2017-10-18T08:07:10.728Z,1011.42
2017-10-18T08:08:21.065Z,1011.45
2017-10-18T08:09:31.395Z,1011.43
2017-10-18T08:10:41.715Z,1011.49
2017-10-18T08:11:52.034Z,1011.36
2017-10-18T08:13:02.081Z,1011.42
2017-10-18T08:14:12.446Z,1011.4
2017-10-18T08:15:22.301Z,1011.37
2017-10-18T08:16:32.814Z,1011.38
2017-10-18T08:17:43.150Z,1011.41
2017-10-18T08:18:53.468Z,1011.38
2017-10-18T08:20:03.784Z,1011.35
2017-10-18T08:21:14.099Z,1011.39
2017-10-18T08:22:24.412Z,1011.39
2017-10-18T08:23:34.767Z,1011.41
2017-10-18T08:24:45.118Z,1011.39
2017-10-18T08:25:55.421Z,1011.36
2017-10-18T08:27:05.761Z,1011.4
2017-10-18T08:28:15.755Z,1011.4
2017-10-18T08:29:26.086Z,1011.41
2017-10-18T08:30:36.425Z,1011.43
2017-10-18T08:31:46.731Z,1011.45
2017-10-18T08:32:57.043Z,1011.47
2017-10-18T08:34:06.960Z,1011.46
2017-10-18T08:35:17.337Z,1011.48
2017-10-18T08:36:27.392Z,1011.48
2017-10-18T08:37:37.388Z,1011.48
2017-10-18T08:38:47.939Z,1011.5
2017-10-18T08:39:58.525Z,1011.52
2017-10-18T08:41:08.537Z,1011.5
2017-10-18T08:42:18.862Z,1011.5
2017-10-18T08:43:29.166Z,1011.53
2017-10-18T08:44:38.869Z,1011.55
2017-10-18T08:45:49.189Z,1011.55
2017-10-18T08:46:59.499Z,1011.59
2017-10-18T08:48:09.870Z,1011.6
2017-10-18T08:49:19.850Z,1011.56
2017-10-18T08:50:29.524Z,1011.55
2017-10-18T08:51:39.531Z,1011.56
2017-10-18T08:52:49.869Z,1011.5
2017-10-18T08:54:00.225Z,1011.5
2017-10-18T08:55:10.230Z,1011.48
2017-10-18T08:56:20.244Z,1011.5
2017-10-18T08:57:30.230Z,1011.49
2017-10-18T08:58:40.570Z,1011.5
2017-10-18T08:59:50.920Z,1011.51
2017-10-18T09:01:01.234Z,1011.47
2017-10-18T09:02:11.562Z,1011.45
2017-10-18T09:03:25.554Z,1011.45
2017-10-18T09:04:35.969Z,1011.46
2017-10-18T09:05:46.168Z,1011.44
2017-10-18T09:06:56.604Z,1011.45
2017-10-18T09:08:06.911Z,1011.46
2017-10-18T09:09:16.897Z,1011.48
2017-10-18T09:10:26.909Z,1011.47
2017-10-18T09:11:37.278Z,1011.46
2017-10-18T09:12:47.585Z,1011.46
2017-10-18T09:13:57.884Z,1011.48
2017-10-18T09:15:08.214Z,1011.49
2017-10-18T09:16:18.560Z,1011.48
2017-10-18T09:17:28.556Z,1011.47
2017-10-18T09:18:38.860Z,1011.44
2017-10-18T09:19:48.846Z,1011.48
2017-10-18T09:20:59.174Z,1011.44
2017-10-18T09:22:09.492Z,1011.44
2017-10-18T09:23:19.964Z,1011.43
2017-10-18T09:24:30.313Z,1011.45
2017-10-18T09:25:40.672Z,1011.46
2017-10-18T09:26:50.916Z,1011.44
2017-10-18T09:28:00.897Z,1011.42
2017-10-18T09:29:10.567Z,1011.41
2017-10-18T09:30:21.074Z,1011.41
2017-10-18T09:31:31.435Z,1011.4
2017-10-18T09:32:41.757Z,1011.4
2017-10-18T09:33:52.055Z,1011.39
2017-10-18T09:35:02.364Z,1011.37
2017-10-18T09:36:12.676Z,1011.36
2017-10-18T09:37:22.708Z,1011.34
2017-10-18T09:38:33.051Z,1011.34
2017-10-18T09:39:43.095Z,1011.32
2017-10-18T09:40:53.399Z,1011.32
2017-10-18T09:42:03.721Z,1011.32
2017-10-18T09:43:13.734Z,1011.28
2017-10-18T09:44:24.039Z,1011.25
2017-10-18T09:45:34.338Z,1011.22
2017-10-18T09:46:44.687Z,1011.21
2017-10-18T09:47:55.018Z,1011.25
2017-10-18T09:49:05.349Z,1011.2
2017-10-18T09:50:15.667Z,1011.21
2017-10-18T09:51:25.653Z,1011.19
2017-10-18T09:52:35.878Z,1011.24
2017-10-18T09:53:46.210Z,1011.22
2017-10-18T09:54:56.209Z,1011.23
2017-10-18T09:56:06.202Z,1011.23
2017-10-18T09:57:16.234Z,1011.2
2017-10-18T09:58:26.535Z,1011.19
2017-10-18T09:59:36.876Z,1011.22
2017-10-18T10:00:47.239Z,1011.26
2017-10-18T10:01:57.564Z,1011.23
2017-10-18T10:03:07.586Z,1011.24
2017-10-18T10:04:17.909Z,1011.25
2017-10-18T10:05:28.222Z,1011.26
2017-10-18T10:06:38.198Z,1011.25
2017-10-18T10:07:48.182Z,1011.23
2017-10-18T10:08:58.509Z,1011.22
2017-10-18T10:10:08.844Z,1011.23
2017-10-18T10:11:19.160Z,1011.17
2017-10-18T10:12:29.150Z,1011.19
2017-10-18T10:13:39.483Z,1011.19
2017-10-18T10:14:49.810Z,1011.17
2017-10-18T10:16:00.161Z,1011.17
2017-10-18T10:17:10.498Z,1011.23
2017-10-18T10:18:20.897Z,1011.21
2017-10-18T10:19:31.184Z,1011.22
2017-10-18T10:20:40.813Z,1011.23
2017-10-18T10:21:51.117Z,1011.22
2017-10-18T10:23:00.757Z,1011.23
2017-10-18T10:24:11.067Z,1011.21
2017-10-18T10:25:21.390Z,1011.24
2017-10-18T10:26:31.057Z,1011.29
2017-10-18T10:27:41.356Z,1011.27
2017-10-18T10:28:51.559Z,1011.19
2017-10-18T10:30:01.899Z,1011.25
2017-10-18T10:31:12.227Z,1011.24
2017-10-18T10:32:22.574Z,1011.27
2017-10-18T10:33:32.893Z,1011.25
2017-10-18T10:34:43.260Z,1011.28
2017-10-18T10:35:53.610Z,1011.22
2017-10-18T10:37:03.962Z,1011.21
2017-10-18T10:38:14.016Z,1011.18
2017-10-18T10:39:24.336Z,1011.18
2017-10-18T10:40:34.976Z,1011.17
2017-10-18T10:41:45.288Z,1011.2
2017-10-18T10:42:55.280Z,1011.15
2017-10-18T10:44:05.297Z,1011.09
2017-10-18T10:45:14.963Z,1011.04
2017-10-18T10:46:24.299Z,1011.09
2017-10-18T10:47:34.652Z,1011.08
2017-10-18T10:48:44.952Z,1011.08
2017-10-18T10:49:55.303Z,1011.07
2017-10-18T10:51:05.871Z,1011.03
2017-10-18T10:52:16.195Z,1011.02
2017-10-18T10:53:26.512Z,1010.98
2017-10-18T10:54:36.572Z,1011
2017-10-18T10:55:46.923Z,1010.99
2017-10-18T10:56:57.247Z,1010.97
2017-10-18T10:58:07.602Z,1011.01
2017-10-18T10:59:17.606Z,1010.97
2017-10-18T11:00:27.600Z,1010.95
2017-10-18T11:01:37.951Z,1010.95
2017-10-18T11:02:48.291Z,1010.92
2017-10-18T11:03:58.619Z,1010.89
2017-10-18T11:05:08.971Z,1010.86
2017-10-18T11:06:18.965Z,1010.89
2017-10-18T11:07:29.298Z,1010.85
2017-10-18T11:08:39.631Z,1010.81
2017-10-18T11:09:49.959Z,1010.85
2017-10-18T11:11:00.346Z,1010.83
2017-10-18T11:12:10.380Z,1010.79
2017-10-18T11:13:20.890Z,1010.81
2017-10-18T11:14:31.210Z,1010.79
2017-10-18T11:15:41.547Z,1010.8
2017-10-18T11:16:51.280Z,1010.79
2017-10-18T11:18:01.628Z,1010.77
2017-10-18T11:19:11.952Z,1010.73
2017-10-18T11:20:22.274Z,1010.7
2017-10-18T11:21:32.610Z,1010.72
2017-10-18T11:22:42.922Z,1010.7
2017-10-18T11:23:53.237Z,1010.72
2017-10-18T11:25:03.247Z,1010.69
2017-10-18T11:26:13.561Z,1010.69
2017-10-18T11:27:23.566Z,1010.65
2017-10-18T11:28:33.987Z,1010.65
2017-10-18T11:29:44.379Z,1010.63
2017-10-18T11:30:54.726Z,1010.68
2017-10-18T11:32:05.196Z,1010.67
2017-10-18T11:33:15.555Z,1010.64
2017-10-18T11:34:25.873Z,1010.62
2017-10-18T11:35:35.865Z,1010.61
2017-10-18T11:36:45.846Z,1010.56
2017-10-18T11:37:56.157Z,1010.57
2017-10-18T11:39:06.462Z,1010.5
2017-10-18T11:40:16.438Z,1010.47
2017-10-18T11:41:26.759Z,1010.46
2017-10-18T11:42:37.081Z,1010.49
2017-10-18T11:43:47.073Z,1010.45
2017-10-18T11:44:56.731Z,1010.46
2017-10-18T11:46:07.062Z,1010.43
2017-10-18T11:47:17.369Z,1010.41
2017-10-18T11:48:27.695Z,1010.41
2017-10-18T11:49:37.672Z,1010.39
2017-10-18T11:50:48.001Z,1010.4
2017-10-18T11:51:58.316Z,1010.38
2017-10-18T11:53:08.618Z,1010.42
2017-10-18T11:54:18.927Z,1010.37
2017-10-18T11:55:29.249Z,1010.36
2017-10-18T11:56:39.560Z,1010.38
2017-10-18T11:57:49.870Z,1010.36
2017-10-18T11:59:00.213Z,1010.37
2017-10-18T12:00:10.551Z,1010.29
2017-10-18T12:01:20.542Z,1010.34
2017-10-18T12:02:30.866Z,1010.31
2017-10-18T12:03:41.215Z,1010.35
2017-10-18T12:04:51.530Z,1010.38
2017-10-18T12:06:01.868Z,1010.32
2017-10-18T12:07:11.917Z,1010.31
2017-10-18T12:08:22.236Z,1010.27
2017-10-18T12:09:32.560Z,1010.28
2017-10-18T12:10:42.876Z,1010.23
2017-10-18T12:11:53.197Z,1010.21
2017-10-18T12:13:03.523Z,1010.25
2017-10-18T12:14:13.518Z,1010.23
2017-10-18T12:15:23.844Z,1010.22
2017-10-18T12:16:34.173Z,1010.21
2017-10-18T12:17:44.524Z,1010.18
2017-10-18T12:18:54.865Z,1010.16
2017-10-18T12:20:04.844Z,1010.16
2017-10-18T12:21:15.165Z,1010.09
2017-10-18T12:22:25.479Z,1010.09
2017-10-18T12:23:35.144Z,1010.09
2017-10-18T12:24:45.124Z,1010.11
2017-10-18T12:25:55.119Z,1010.1
2017-10-18T12:27:05.424Z,1010.1
2017-10-18T12:28:15.750Z,1010.07
2017-10-18T12:29:26.082Z,1010.14
2017-10-18T12:30:35.754Z,1010.12
2017-10-18T12:31:46.105Z,1010.06
2017-10-18T12:32:56.107Z,1010.1
2017-10-18T12:34:06.114Z,1010.08
2017-10-18T12:35:16.431Z,1010.06
2017-10-18T12:36:26.762Z,1010.03
2017-10-18T12:37:37.104Z,1010.03
2017-10-18T12:38:46.443Z,1010.1
2017-10-18T12:39:56.447Z,1010.1
2017-10-18T12:41:06.762Z,1010.09
2017-10-18T12:42:17.076Z,1010.05
2017-10-18T12:43:27.665Z,1010.04
2017-10-18T12:44:37.983Z,1010.02
2017-10-18T12:45:47.969Z,1010.02
2017-10-18T12:46:58.291Z,1010.03
2017-10-18T12:48:08.283Z,1010.03
2017-10-18T12:49:18.279Z,1010.02
2017-10-18T12:50:28.587Z,1009.97
2017-10-18T12:51:38.572Z,1009.98
2017-10-18T12:52:48.605Z,1010.01
2017-10-18T12:53:58.975Z,1010
2017-10-18T12:55:09.382Z,1010.01
2017-10-18T12:56:19.706Z,1009.98
2017-10-18T12:57:30.045Z,1009.96
2017-10-18T12:58:40.367Z,1009.95
2017-10-18T12:59:50.689Z,1009.95
2017-10-18T13:01:01.049Z,1009.94
2017-10-18T13:02:11.354Z,1009.95
2017-10-18T13:03:21.681Z,1009.89
2017-10-18T13:04:31.987Z,1009.94
2017-10-18T13:05:42.053Z,1009.94
2017-10-18T13:06:52.358Z,1009.89
2017-10-18T13:08:02.354Z,1009.93
2017-10-18T13:09:12.691Z,1009.9
2017-10-18T13:10:23.023Z,1009.89
2017-10-18T13:11:33.356Z,1009.89
2017-10-18T13:12:43.676Z,1009.85
2017-10-18T13:13:54.035Z,1009.84
2017-10-18T13:15:04.016Z,1009.87
2017-10-18T13:16:14.043Z,1009.84
2017-10-18T13:17:24.370Z,1009.76
2017-10-18T13:18:34.686Z,1009.78
2017-10-18T13:19:45.001Z,1009.73
2017-10-18T13:20:55.368Z,1009.76
2017-10-18T13:22:05.401Z,1009.77
2017-10-18T13:23:15.407Z,1009.77
2017-10-18T13:24:25.737Z,1009.74
2017-10-18T13:25:35.710Z,1009.75
2017-10-18T13:26:45.708Z,1009.73
2017-10-18T13:27:55.692Z,1009.69
2017-10-18T13:29:06.273Z,1009.66
2017-10-18T13:30:16.285Z,1009.67
2017-10-18T13:31:26.604Z,1009.71
2017-10-18T13:32:36.598Z,1009.73
2017-10-18T13:33:46.577Z,1009.72
2017-10-18T13:34:56.559Z,1009.72
2017-10-18T13:36:06.569Z,1009.68
2017-10-18T13:37:16.565Z,1009.68
2017-10-18T13:38:26.551Z,1009.67
2017-10-18T13:39:36.880Z,1009.64
2017-10-18T13:40:47.239Z,1009.64
2017-10-18T13:41:57.207Z,1009.59
2017-10-18T13:43:07.532Z,1009.6
2017-10-18T13:44:17.843Z,1009.62
2017-10-18T13:45:27.845Z,1009.59
2017-10-18T13:46:38.150Z,1009.6
2017-10-18T13:47:48.130Z,1009.59
2017-10-18T13:48:58.448Z,1009.57
2017-10-18T13:50:08.760Z,1009.56
2017-10-18T13:51:19.086Z,1009.56
2017-10-18T13:52:29.402Z,1009.55
2017-10-18T13:53:39.395Z,1009.53
2017-10-18T13:54:48.739Z,1009.56
2017-10-18T13:55:59.057Z,1009.56
2017-10-18T13:57:09.375Z,1009.55
2017-10-18T13:58:19.688Z,1009.56
2017-10-18T13:59:30.003Z,1009.57
2017-10-18T14:00:39.987Z,1009.59
2017-10-18T14:01:49.967Z,1009.57
2017-10-18T14:02:59.615Z,1009.57
2017-10-18T14:04:09.919Z,1009.58
2017-10-18T14:05:20.246Z,1009.57
2017-10-18T14:06:30.784Z,1009.58
2017-10-18T14:07:40.779Z,1009.52
2017-10-18T14:08:50.421Z,1009.53
2017-10-18T14:10:00.724Z,1009.53
2017-10-18T14:11:11.048Z,1009.52
2017-10-18T14:12:21.342Z,1009.49